createdAt,value
2023-04-11T00:01:24.483Z,3.50
2023-04-11T00:03:53.089Z,3.17
2023-04-11T00:06:19.865Z,3.67
2023-04-11T00:08:47.903Z,3.60
2023-04-11T00:11:14.839Z,3.70
2023-04-11T00:13:42.747Z,3.13
2023-04-11T00:16:10.123Z,3.40
2023-04-11T00:18:39.305Z,3.30
2023-04-11T00:21:08.273Z,3.58
2023-04-11T00:23:34.929Z,3.50
2023-04-11T00:26:01.972Z,3.38
2023-04-11T00:28:28.692Z,3.55
2023-04-11T00:30:55.625Z,3.30
2023-04-11T00:33:22.342Z,3.13
2023-04-11T00:35:49.202Z,3.28
2023-04-11T00:38:16.673Z,2.92
2023-04-11T00:40:43.746Z,3.42
2023-04-11T00:43:10.589Z,3.13
2023-04-11T00:45:37.435Z,3.58
2023-04-11T00:48:04.514Z,3.42
2023-04-11T00:50:31.332Z,2.90
2023-04-11T00:52:58.328Z,3.08
2023-04-11T00:55:26.019Z,3.17
2023-04-11T00:57:54.894Z,2.60
2023-04-11T01:00:22.444Z,3.15
2023-04-11T01:02:49.869Z,2.72
2023-04-11T01:05:17.473Z,3.42
2023-04-11T01:07:48.164Z,3.10
2023-04-11T01:10:16.312Z,2.92
2023-04-11T01:12:45.693Z,2.65
2023-04-11T01:15:12.667Z,2.50
2023-04-11T01:17:41.650Z,2.65
2023-04-11T01:20:10.553Z,2.78
2023-04-11T01:22:39.462Z,2.92
2023-04-11T01:25:06.635Z,2.33
2023-04-11T01:27:34.103Z,2.40
2023-04-11T01:30:01.564Z,2.80
2023-04-11T01:32:28.537Z,2.65
2023-04-11T01:34:58.224Z,3.35
2023-04-11T01:37:25.532Z,2.58
2023-04-11T01:39:52.514Z,2.72
2023-04-11T01:42:20.589Z,2.28
2023-04-11T01:44:48.189Z,2.55
2023-04-11T01:47:15.054Z,2.45
2023-04-11T01:49:42.873Z,2.55
2023-04-11T01:52:09.818Z,2.55
2023-04-11T01:54:36.538Z,2.30
2023-04-11T01:57:06.379Z,2.83
2023-04-11T01:59:33.088Z,2.35
2023-04-11T02:02:00.898Z,2.22
2023-04-11T02:04:27.727Z,2.47
2023-04-11T02:06:54.535Z,2.40
2023-04-11T02:09:21.202Z,2.47
2023-04-11T02:11:47.848Z,2.67
2023-04-11T02:14:18.221Z,2.03
2023-04-11T02:16:55.813Z,2.50
2023-04-11T02:19:25.960Z,2.10
2023-04-11T02:21:52.769Z,2.40
2023-04-11T02:24:19.495Z,2.28
2023-04-11T02:26:46.148Z,2.45
2023-04-11T02:29:12.794Z,2.17
2023-04-11T02:31:39.628Z,2.17
2023-04-11T02:34:06.367Z,2.00
2023-04-11T02:36:34.868Z,2.20
2023-04-11T02:39:01.645Z,2.38
2023-04-11T02:41:28.337Z,2.08
2023-04-11T02:43:55.415Z,2.33
2023-04-11T02:46:22.501Z,2.50
2023-04-11T02:48:49.375Z,2.03
2023-04-11T02:51:16.123Z,2.30
2023-04-11T02:53:42.906Z,1.92
2023-04-11T02:56:11.163Z,1.85
2023-04-11T02:58:41.849Z,2.53
2023-04-11T03:01:11.896Z,2.05
2023-04-11T03:03:38.951Z,1.95
2023-04-11T03:06:09.100Z,1.60
2023-04-11T03:08:37.619Z,1.80
2023-04-11T03:11:05.078Z,1.70
2023-04-11T03:13:32.371Z,1.90
2023-04-11T03:15:59.719Z,2.15
2023-04-11T03:18:28.893Z,1.83
2023-04-11T03:20:56.464Z,2.00
2023-04-11T03:23:23.294Z,1.48
2023-04-11T03:25:51.783Z,1.95
2023-04-11T03:28:19.616Z,1.80
2023-04-11T03:30:48.743Z,1.92
2023-04-11T03:33:19.655Z,2.38
2023-04-11T03:35:46.400Z,2.08
2023-04-11T03:38:13.155Z,1.20
2023-04-11T03:40:39.886Z,1.70
2023-04-11T03:43:11.108Z,2.00
2023-04-11T03:45:37.804Z,2.33
2023-04-11T03:48:10.455Z,1.85
2023-04-11T03:50:49.275Z,1.80
2023-04-11T03:53:20.391Z,1.20
2023-04-11T03:55:49.103Z,1.70
2023-04-11T03:58:18.283Z,1.77
2023-04-11T04:00:46.247Z,1.80
2023-04-11T04:03:13.912Z,2.10
2023-04-11T04:05:42.114Z,1.83
2023-04-11T04:08:10.802Z,1.92
2023-04-11T04:10:48.559Z,2.45
2023-04-11T04:13:16.250Z,1.40
2023-04-11T04:15:52.721Z,1.73
2023-04-11T04:18:24.132Z,2.33
2023-04-11T04:20:51.322Z,2.63
2023-04-11T04:23:19.792Z,1.48
2023-04-11T04:26:16.080Z,1.98
2023-04-11T04:28:47.903Z,1.75
2023-04-11T04:31:25.451Z,1.23
2023-04-11T04:34:09.680Z,1.52
2023-04-11T04:36:46.454Z,1.30
2023-04-11T04:39:17.423Z,1.38
2023-04-11T04:41:49.955Z,1.98
2023-04-11T04:44:17.528Z,1.45
2023-04-11T04:46:55.400Z,1.55
2023-04-11T04:49:24.706Z,1.30
2023-04-11T04:51:51.460Z,2.35
2023-04-11T04:54:19.570Z,1.15
2023-04-11T04:56:48.223Z,1.85
2023-04-11T04:59:16.233Z,1.55
2023-04-11T05:01:50.779Z,1.40
2023-04-11T05:04:23.353Z,0.95
2023-04-11T05:06:54.246Z,1.15
2023-04-11T05:09:21.715Z,1.35
2023-04-11T05:11:50.942Z,1.20
2023-04-11T05:14:19.739Z,1.50
2023-04-11T05:16:46.714Z,1.20
2023-04-11T05:19:13.699Z,1.40
2023-04-11T05:21:44.964Z,1.13
2023-04-11T05:24:12.121Z,1.65
2023-04-11T05:26:39.830Z,1.27
2023-04-11T05:29:07.635Z,1.38
2023-04-11T05:31:34.399Z,1.40
2023-04-11T05:34:02.156Z,1.50
2023-04-11T05:36:28.897Z,1.98
2023-04-11T05:38:55.932Z,1.98
2023-04-11T05:41:22.730Z,1.75
2023-04-11T05:43:49.507Z,1.48
2023-04-11T05:46:17.048Z,1.42
2023-04-11T05:48:43.755Z,1.13
2023-04-11T05:51:10.439Z,0.98
2023-04-11T05:53:37.132Z,1.20
2023-04-11T05:56:03.967Z,1.80
2023-04-11T05:58:30.728Z,2.13
2023-04-11T06:00:59.718Z,1.08
2023-04-11T06:03:27.285Z,1.60
2023-04-11T06:05:54.313Z,1.20
2023-04-11T06:08:21.454Z,1.50
2023-04-11T06:10:48.258Z,1.30
2023-04-11T06:13:14.943Z,1.50
2023-04-11T06:15:41.851Z,0.98
2023-04-11T06:18:08.715Z,1.42
2023-04-11T06:20:35.395Z,1.35
2023-04-11T06:23:02.136Z,1.30
2023-04-11T06:25:28.785Z,1.05
2023-04-11T06:27:55.620Z,1.42
2023-04-11T06:30:22.364Z,1.42
2023-04-11T06:32:49.121Z,1.63
2023-04-11T06:35:15.996Z,1.40
2023-04-11T06:37:42.694Z,0.80
2023-04-11T06:40:09.861Z,1.40
2023-04-11T06:42:36.513Z,1.42
2023-04-11T06:45:04.956Z,1.33
2023-04-11T06:47:31.767Z,0.77
2023-04-11T06:49:59.277Z,4.82
2023-04-11T06:52:27.640Z,1.35
2023-04-11T06:54:55.039Z,1.00
2023-04-11T06:57:22.267Z,0.95
2023-04-11T06:59:48.974Z,1.45
2023-04-11T07:02:15.920Z,1.33
2023-04-11T07:04:42.896Z,1.02
2023-04-11T07:07:09.650Z,1.63
2023-04-11T07:09:36.431Z,1.30
2023-04-11T07:12:03.150Z,0.90
2023-04-11T07:14:29.856Z,1.00
2023-04-11T07:16:56.493Z,1.33
2023-04-11T07:19:23.145Z,1.25
2023-04-11T07:21:49.804Z,1.88
2023-04-11T07:24:18.606Z,1.02
2023-04-11T07:26:46.385Z,1.08
2023-04-11T07:29:14.839Z,1.42
2023-04-11T07:31:41.996Z,1.13
2023-04-11T07:34:08.736Z,1.67
2023-04-11T07:36:35.653Z,1.50
2023-04-11T07:39:04.334Z,1.45
2023-04-11T07:41:31.031Z,1.58
2023-04-11T07:43:57.954Z,1.50
2023-04-11T07:46:24.856Z,3.08
2023-04-11T07:48:51.572Z,1.13
2023-04-11T07:51:18.796Z,0.82
2023-04-11T07:53:45.611Z,1.20
2023-04-11T07:56:12.593Z,0.90
2023-04-11T07:58:39.362Z,1.48
2023-04-11T08:01:18.871Z,1.60
2023-04-11T08:03:45.756Z,1.90
2023-04-11T08:06:12.639Z,1.65
2023-04-11T08:08:39.305Z,1.38
2023-04-11T08:11:06.121Z,1.52
2023-04-11T08:13:32.838Z,0.85
2023-04-11T08:15:59.610Z,1.27
2023-04-11T08:18:26.366Z,1.38
2023-04-11T08:20:53.457Z,1.88
2023-04-11T08:23:21.610Z,1.55
2023-04-11T08:25:48.253Z,2.08
2023-04-11T08:28:15.229Z,1.50
2023-04-11T08:30:41.978Z,1.90
2023-04-11T08:33:10.045Z,1.40
2023-04-11T08:35:37.660Z,1.58
2023-04-11T08:38:04.379Z,1.10
2023-04-11T08:40:31.184Z,0.82
2023-04-11T08:43:01.021Z,1.77
2023-04-11T08:45:28.725Z,1.05
2023-04-11T08:47:55.520Z,1.02
2023-04-11T08:50:22.342Z,0.90
2023-04-11T08:52:50.818Z,0.57
2023-04-11T08:55:17.471Z,0.43
2023-04-11T08:57:44.135Z,1.42
2023-04-11T09:00:13.895Z,0.82
2023-04-11T09:03:01.520Z,1.00
2023-04-11T09:05:29.286Z,0.70
2023-04-11T09:07:57.281Z,0.50
2023-04-11T09:10:25.508Z,1.65
2023-04-11T09:12:52.421Z,0.63
2023-04-11T09:15:21.718Z,0.65
2023-04-11T09:17:49.731Z,0.80
2023-04-11T09:20:18.212Z,0.35
2023-04-11T09:22:45.113Z,1.42
2023-04-11T09:25:11.925Z,0.60
2023-04-11T09:27:38.630Z,0.77
2023-04-11T09:30:05.957Z,0.98
2023-04-11T09:32:34.640Z,0.82
2023-04-11T09:35:20.856Z,0.93
2023-04-11T09:37:50.560Z,0.98
2023-04-11T09:40:18.895Z,0.55
2023-04-11T09:42:47.794Z,0.45
2023-04-11T09:45:22.412Z,0.45
2023-04-11T09:47:50.513Z,0.90
2023-04-11T09:50:17.771Z,0.50
2023-04-11T09:52:45.578Z,1.02
2023-04-11T09:55:15.067Z,0.63
2023-04-11T09:57:46.752Z,0.85
2023-04-11T10:00:16.815Z,1.38
2023-04-11T10:02:45.226Z,0.47
2023-04-11T10:05:13.504Z,0.55
2023-04-11T10:07:52.683Z,0.50
2023-04-11T10:10:21.311Z,0.45
2023-04-11T10:12:49.573Z,0.98
2023-04-11T10:15:17.708Z,0.82
2023-04-11T10:18:11.188Z,0.85
2023-04-11T10:20:48.166Z,0.63
2023-04-11T10:23:16.344Z,0.47
2023-04-11T10:25:59.933Z,1.30
2023-04-11T10:28:38.459Z,0.60
2023-04-11T10:31:17.376Z,0.52
2023-04-11T10:34:16.493Z,0.73
2023-04-11T10:37:06.180Z,1.27
2023-04-11T10:40:09.807Z,1.17
2023-04-11T10:42:36.591Z,1.27
2023-04-11T10:45:23.523Z,0.75
2023-04-11T10:48:05.512Z,0.98
2023-04-11T10:50:33.277Z,0.77
2023-04-11T10:53:09.701Z,0.68
2023-04-11T10:55:47.166Z,0.60
2023-04-11T10:58:22.243Z,1.20
2023-04-11T11:00:52.015Z,1.60
2023-04-11T11:03:20.989Z,0.95
2023-04-11T11:05:56.856Z,0.82
2023-04-11T11:08:30.272Z,0.85
2023-04-11T11:11:01.823Z,0.50
2023-04-11T11:13:45.832Z,1.23
2023-04-11T11:16:17.305Z,0.85
2023-04-11T11:18:48.762Z,0.73
2023-04-11T11:21:26.511Z,0.80
2023-04-11T11:24:02.042Z,1.45
2023-04-11T11:26:42.413Z,0.65
2023-04-11T11:29:10.291Z,1.60
2023-04-11T11:31:42.761Z,1.13
2023-04-11T11:34:22.975Z,0.70
2023-04-11T11:36:51.284Z,1.30
2023-04-11T11:39:19.459Z,1.52
2023-04-11T11:41:47.426Z,3.35
2023-04-11T11:44:24.448Z,0.80
2023-04-11T11:47:12.598Z,1.98
2023-04-11T11:49:50.893Z,0.50
2023-04-11T11:52:34.312Z,1.15
2023-04-11T11:55:08.102Z,1.73
2023-04-11T11:57:49.813Z,1.07
2023-04-11T12:00:24.887Z,0.73
2023-04-11T12:02:56.250Z,1.25
2023-04-11T12:05:30.497Z,0.55
2023-04-11T12:07:59.476Z,1.30
2023-04-11T12:10:36.579Z,1.95
2023-04-11T12:13:14.808Z,0.80
2023-04-11T12:15:45.873Z,1.17
2023-04-11T12:18:12.822Z,1.55
2023-04-11T12:20:39.579Z,1.38
2023-04-11T12:23:06.391Z,1.10
2023-04-11T12:25:33.154Z,1.85
2023-04-11T12:27:59.810Z,1.13
2023-04-11T12:30:28.209Z,1.15
2023-04-11T12:32:56.307Z,0.50
2023-04-11T12:35:23.086Z,1.83
2023-04-11T12:37:49.784Z,1.27
2023-04-11T12:40:17.045Z,1.70
2023-04-11T12:42:56.277Z,0.90
2023-04-11T12:45:24.391Z,0.93
2023-04-11T12:47:51.536Z,1.58
2023-04-11T12:50:18.461Z,1.10
2023-04-11T12:52:45.369Z,1.38
2023-04-11T12:55:13.415Z,1.95
2023-04-11T12:57:41.447Z,0.85
2023-04-11T13:00:10.497Z,1.02
2023-04-11T13:02:43.284Z,0.55
2023-04-11T13:05:14.212Z,1.55
2023-04-11T13:07:42.079Z,1.17
2023-04-11T13:10:09.202Z,0.85
2023-04-11T13:12:44.321Z,1.17
2023-04-11T13:15:12.816Z,2.17
2023-04-11T13:17:39.829Z,1.42
2023-04-11T13:20:07.854Z,1.55
2023-04-11T13:22:34.548Z,1.88
2023-04-11T13:25:01.215Z,1.75
2023-04-11T13:27:27.879Z,1.17
2023-04-11T13:29:54.532Z,2.83
2023-04-11T13:32:21.438Z,1.60
2023-04-11T13:34:48.119Z,1.95
2023-04-11T13:37:14.866Z,1.38
2023-04-11T13:39:42.131Z,2.10
2023-04-11T13:42:09.325Z,1.23
2023-04-11T13:44:35.971Z,1.60
2023-04-11T13:47:03.573Z,1.23
2023-04-11T13:49:30.324Z,2.33
2023-04-11T13:51:57.119Z,0.90
2023-04-11T13:54:23.827Z,1.70
2023-04-11T13:56:50.962Z,1.83
2023-04-11T13:59:17.620Z,1.23
2023-04-11T14:01:44.424Z,2.20
2023-04-11T14:04:11.794Z,1.10
2023-04-11T14:06:39.690Z,1.95
2023-04-11T14:09:06.356Z,2.20
2023-04-11T14:11:33.272Z,1.80
2023-04-11T14:13:59.958Z,2.03
2023-04-11T14:16:26.645Z,1.33
2023-04-11T14:18:53.370Z,1.40
2023-04-11T14:21:20.665Z,1.98
2023-04-11T14:23:48.567Z,1.33
2023-04-11T14:26:15.427Z,1.05
2023-04-11T14:28:42.091Z,1.58
2023-04-11T14:31:09.643Z,2.28
2023-04-11T14:33:36.582Z,3.78
2023-04-11T14:36:03.358Z,1.15
2023-04-11T14:38:30.059Z,0.63
2023-04-11T14:40:56.828Z,1.35
2023-04-11T14:43:23.590Z,1.20
2023-04-11T14:45:50.303Z,1.50
2023-04-11T14:48:17.046Z,1.20
2023-04-11T14:50:43.761Z,1.77
2023-04-11T14:53:10.908Z,1.48
2023-04-11T14:55:39.700Z,0.70
2023-04-11T14:58:06.684Z,1.77
2023-04-11T15:03:00.202Z,2.05
2023-04-11T15:05:28.035Z,1.70
2023-04-11T15:07:54.726Z,1.17
2023-04-11T15:10:24.600Z,1.80
2023-04-11T15:12:51.288Z,1.35
2023-04-11T15:15:18.010Z,0.95
2023-04-11T15:17:50.022Z,2.22
2023-04-11T15:20:17.252Z,1.63
2023-04-11T15:22:45.789Z,1.70
2023-04-11T15:25:14.864Z,1.65
2023-04-11T15:27:42.382Z,0.82
2023-04-11T15:30:10.238Z,1.00
2023-04-11T15:32:43.285Z,1.83
2023-04-11T15:35:10.285Z,0.75
2023-04-11T15:37:36.953Z,1.42
2023-04-11T15:40:06.166Z,0.93
2023-04-11T15:42:35.225Z,1.70
2023-04-11T15:45:02.420Z,0.57
2023-04-11T15:47:29.959Z,1.55
2023-04-11T15:49:58.890Z,0.75
2023-04-11T15:52:25.617Z,1.17
2023-04-11T15:54:52.437Z,0.75
2023-04-11T15:57:19.542Z,0.73
2023-04-11T15:59:46.347Z,2.03
2023-04-11T16:02:15.012Z,0.73
2023-04-11T16:04:44.175Z,1.50
2023-04-11T16:07:12.787Z,1.00
2023-04-11T16:09:39.429Z,1.95
2023-04-11T16:12:06.206Z,0.93
2023-04-11T16:14:32.929Z,0.73
2023-04-11T16:16:59.603Z,1.33
2023-04-11T16:19:26.297Z,1.02
2023-04-11T16:21:53.932Z,1.48
2023-04-11T16:24:20.994Z,1.40
2023-04-11T16:26:47.691Z,1.77
2023-04-11T16:29:14.414Z,1.02
2023-04-11T16:31:41.082Z,0.98
2023-04-11T16:34:07.805Z,1.30
2023-04-11T16:36:35.379Z,1.35
2023-04-11T16:39:04.157Z,1.60
2023-04-11T16:41:31.412Z,1.67
2023-04-11T16:46:25.259Z,1.35
2023-04-11T16:48:52.090Z,1.88
2023-04-11T16:51:18.816Z,1.10
2023-04-11T16:53:45.969Z,0.90
2023-04-11T16:56:12.901Z,0.90
2023-04-11T16:58:39.630Z,1.48
2023-04-11T17:01:06.792Z,0.70
2023-04-11T17:03:33.775Z,2.05
2023-04-11T17:06:00.636Z,0.80
2023-04-11T17:08:27.334Z,1.20
2023-04-11T17:10:54.045Z,0.68
2023-04-11T17:13:20.784Z,1.27
2023-04-11T17:15:47.507Z,1.00
2023-04-11T17:18:14.854Z,0.52
2023-04-11T17:20:43.407Z,0.90
2023-04-11T17:23:10.259Z,1.45
2023-04-11T17:25:37.274Z,1.33
2023-04-11T17:28:04.073Z,1.35
2023-04-11T17:30:31.929Z,0.73
2023-04-11T17:32:59.778Z,1.52
2023-04-11T17:35:28.248Z,1.27
2023-04-11T17:37:55.241Z,1.58
2023-04-11T17:40:22.019Z,1.05
2023-04-11T17:42:49.254Z,1.00
2023-04-11T17:45:18.596Z,1.27
2023-04-11T17:47:48.858Z,0.75
2023-04-11T17:50:16.316Z,1.15
2023-04-11T17:52:47.424Z,0.98
2023-04-11T17:55:16.958Z,0.55
2023-04-11T17:57:44.848Z,1.08
2023-04-11T18:00:23.159Z,0.82
2023-04-11T18:02:52.360Z,1.58
2023-04-11T18:05:24.378Z,0.93
2023-04-11T18:07:54.049Z,1.30
2023-04-11T18:10:21.947Z,0.82
2023-04-11T18:12:51.472Z,1.20
2023-04-11T18:15:19.000Z,0.50
2023-04-11T18:17:45.938Z,1.70
2023-04-11T18:20:14.032Z,0.98
2023-04-11T18:22:45.492Z,1.13
2023-04-11T18:25:12.712Z,1.50
2023-04-11T18:27:40.697Z,0.90
2023-04-11T18:30:11.675Z,1.30
2023-04-11T18:32:43.221Z,1.20
2023-04-11T18:35:12.705Z,1.23
2023-04-11T18:37:40.997Z,1.17
2023-04-11T18:40:11.800Z,1.45
2023-04-11T18:42:40.032Z,1.02
2023-04-11T18:45:07.302Z,2.20
2023-04-11T18:47:34.352Z,0.80
2023-04-11T18:50:01.688Z,1.25
2023-04-11T18:52:29.222Z,1.15
2023-04-11T18:54:56.470Z,1.17
2023-04-11T18:57:25.962Z,1.58
2023-04-11T18:59:55.200Z,1.17
2023-04-11T19:02:23.046Z,1.77
2023-04-11T19:04:50.806Z,0.63
2023-04-11T19:07:17.831Z,1.63
2023-04-11T19:09:46.778Z,1.08
2023-04-11T19:12:16.009Z,1.90
2023-04-11T19:14:43.017Z,1.30
2023-04-11T19:17:12.601Z,1.67
2023-04-11T19:19:39.370Z,2.00
2023-04-11T19:22:07.343Z,1.48
2023-04-11T19:24:34.029Z,1.55
2023-04-11T19:27:01.503Z,1.33
2023-04-11T19:29:28.212Z,1.40
2023-04-11T19:31:54.935Z,0.80
2023-04-11T19:34:21.766Z,3.08
2023-04-11T19:36:48.490Z,2.45
2023-04-11T19:39:15.332Z,1.55
2023-04-11T19:41:46.013Z,1.25
2023-04-11T19:44:13.251Z,1.23
2023-04-11T19:46:41.081Z,1.30
2023-04-11T19:49:08.245Z,2.15
2023-04-11T19:51:34.925Z,1.20
2023-04-11T19:54:01.629Z,1.50
2023-04-11T19:56:28.360Z,1.58
2023-04-11T19:58:55.035Z,2.28
2023-04-11T20:01:21.901Z,1.55
2023-04-11T20:03:49.054Z,1.80
2023-04-11T20:06:16.001Z,0.93
2023-04-11T20:08:42.734Z,2.75
2023-04-11T20:11:13.571Z,1.55
2023-04-11T20:13:40.326Z,1.45
2023-04-11T20:16:09.859Z,1.25
2023-04-11T20:18:36.598Z,1.95
2023-04-11T20:21:06.146Z,1.63
2023-04-11T20:23:33.560Z,1.73
2023-04-11T20:26:00.252Z,1.65
2023-04-11T20:28:26.970Z,1.33
2023-04-11T20:30:53.787Z,2.35
2023-04-11T20:33:20.500Z,1.73
2023-04-11T20:35:47.182Z,1.42
2023-04-11T20:38:13.909Z,2.55
2023-04-11T20:40:40.604Z,2.03
2023-04-11T20:43:09.570Z,1.73
2023-04-11T20:45:36.289Z,2.08
2023-04-11T20:48:06.023Z,1.42
2023-04-11T20:50:35.614Z,2.58
2023-04-11T20:53:02.417Z,2.05
2023-04-11T20:55:29.940Z,1.52
2023-04-11T20:57:56.618Z,1.20
2023-04-11T21:00:23.275Z,1.58
2023-04-11T21:02:50.345Z,2.90
2023-04-11T21:05:18.752Z,1.65
2023-04-11T21:07:45.990Z,2.50
2023-04-11T21:10:13.002Z,1.65
2023-04-11T21:12:39.749Z,2.50
2023-04-11T21:15:07.218Z,1.55
2023-04-11T21:17:35.400Z,2.10
2023-04-11T21:20:10.016Z,1.73
2023-04-11T21:22:37.248Z,1.63
2023-04-11T21:25:04.239Z,2.38
2023-04-11T21:27:31.120Z,2.35
2023-04-11T21:29:57.807Z,1.50
2023-04-11T21:32:24.498Z,1.73
2023-04-11T21:34:51.184Z,2.08
2023-04-11T21:37:17.846Z,1.73
2023-04-11T21:39:44.521Z,2.47
2023-04-11T21:42:11.172Z,2.00
2023-04-11T21:44:37.858Z,2.42
2023-04-11T21:47:04.784Z,2.20
2023-04-11T21:49:32.164Z,2.67
2023-04-11T21:51:58.812Z,2.08
2023-04-11T21:54:25.647Z,2.38
2023-04-11T21:56:52.328Z,1.80
2023-04-11T21:59:19.000Z,2.58
2023-04-11T22:11:41.858Z,2.55
2023-04-11T22:14:08.702Z,2.70
2023-04-11T22:16:35.694Z,2.08
2023-04-11T22:19:02.426Z,2.60
2023-04-11T22:21:31.851Z,2.25
2023-04-11T22:23:58.697Z,2.75
2023-04-11T22:26:33.970Z,4.03
2023-04-11T22:29:05.188Z,2.55
2023-04-11T22:31:34.995Z,2.78
2023-04-11T22:34:04.693Z,2.83
2023-04-11T22:36:38.230Z,3.20
2023-04-11T22:39:06.719Z,2.85
2023-04-11T22:41:34.153Z,2.75
2023-04-11T22:44:01.400Z,3.50
2023-04-11T22:46:33.756Z,3.08
2023-04-11T22:49:00.595Z,2.33
2023-04-11T22:51:30.126Z,3.10
2023-04-11T22:53:57.541Z,3.47
2023-04-11T22:56:24.472Z,2.15
2023-04-11T22:58:52.416Z,3.25
2023-04-11T23:01:19.382Z,3.85
2023-04-11T23:03:46.243Z,2.67
2023-04-11T23:06:12.989Z,3.28
2023-04-11T23:08:39.737Z,2.75
2023-04-11T23:11:07.183Z,3.45
2023-04-11T23:13:33.855Z,2.45
2023-04-11T23:16:00.735Z,2.63
2023-04-11T23:18:27.574Z,2.72
2023-04-11T23:20:54.248Z,3.13
2023-04-11T23:23:20.970Z,2.55
2023-04-11T23:25:47.664Z,3.15
2023-04-11T23:28:14.290Z,2.80
2023-04-11T23:30:41.493Z,2.60
2023-04-11T23:33:08.908Z,2.65
2023-04-11T23:35:36.108Z,2.63
2023-04-11T23:38:03.419Z,3.20
2023-04-11T23:40:30.509Z,2.30
2023-04-11T23:42:57.894Z,3.72
2023-04-11T23:45:24.901Z,2.53
2023-04-11T23:47:51.925Z,2.42
2023-04-11T23:50:18.803Z,2.65
2023-04-11T23:52:46.303Z,2.85
2023-04-11T23:55:13.377Z,2.40
2023-04-11T23:57:40.527Z,3.60
